Time;durP1;ratioP1;P1;durP2;ratioP2;P2;SDS_P1;SDS_P2;PMS_P1;PMS_P2;Temp;Humidity;BMP_temperature;BMP_pressure;BME280_temperature;BME280_humidity;BME280_pressure;Samples;Min_cycle;Max_cycle;Signal;HPM_P1;HPM_P2
2022/03/03 00:02:19;;;;;;;18.43;13.33;;;;;;;1.92;69.13;96901.09;5070865;28;20418;-62
2022/03/03 00:04:44;;;;;;;16.75;13.13;;;;;;;1.97;68.11;96907.38;5070985;28;20453;-62
2022/03/03 00:07:10;;;;;;;21.37;13.27;;;;;;;2.23;67.32;96906.28;5071218;28;20852;-62
2022/03/03 00:09:35;;;;;;;19.40;13.40;;;;;;;1.95;67.99;96908.53;5071159;28;20756;-62
2022/03/03 00:12:00;;;;;;;19.80;13.47;;;;;;;1.80;67.78;96913.59;5070787;28;20379;-62
2022/03/03 00:14:26;;;;;;;17.90;13.17;;;;;;;1.89;68.25;96909.22;5071297;28;20380;-62
2022/03/03 00:16:51;;;;;;;18.98;13.60;;;;;;;1.94;67.67;96905.16;5071007;28;20545;-61
2022/03/03 00:19:16;;;;;;;18.47;13.27;;;;;;;1.96;67.90;96907.53;5071044;28;20408;-62
2022/03/03 00:21:42;;;;;;;19.23;13.98;;;;;;;2.06;67.21;96908.94;5070979;28;20403;-62
2022/03/03 00:24:07;;;;;;;20.63;13.83;;;;;;;1.86;67.24;96906.94;5070695;28;20391;-62
2022/03/03 00:26:33;;;;;;;19.93;14.23;;;;;;;1.91;67.71;96907.25;5070869;28;20387;-62
2022/03/03 00:28:58;;;;;;;18.50;13.30;;;;;;;1.83;67.42;96908.09;5071083;28;20399;-62
2022/03/03 00:31:24;;;;;;;17.80;13.43;;;;;;;1.78;67.96;96902.63;5071137;28;20383;-62
2022/03/03 00:33:49;;;;;;;22.08;14.13;;;;;;;1.78;67.92;96894.88;5071219;28;20729;-62
2022/03/03 00:36:15;;;;;;;20.85;13.50;;;;;;;1.62;68.17;96889.75;5070937;28;20475;-62
2022/03/03 00:38:40;;;;;;;19.35;14.20;;;;;;;1.73;67.63;96897.16;5071222;28;20388;-61
2022/03/03 00:41:06;;;;;;;18.77;14.00;;;;;;;1.54;68.72;96902.72;5070490;28;20960;-62
2022/03/03 00:43:31;;;;;;;18.23;13.93;;;;;;;1.53;67.95;96903.69;5071027;28;20892;-62
2022/03/03 00:45:57;;;;;;;18.13;14.07;;;;;;;1.61;67.96;96895.94;5070221;28;20388;-62
2022/03/03 00:48:22;;;;;;;19.73;14.30;;;;;;;1.60;67.90;96897.72;5072843;28;20516;-62
2022/03/03 00:50:48;;;;;;;21.97;15.10;;;;;;;1.62;67.54;96900.09;5074170;28;20833;-62
2022/03/03 00:53:13;;;;;;;20.17;15.40;;;;;;;1.51;67.67;96896.09;5074091;28;20383;-62
2022/03/03 00:55:39;;;;;;;20.00;14.93;;;;;;;1.41;68.45;96902.44;5073686;28;20388;-63
2022/03/03 00:58:04;;;;;;;21.97;14.97;;;;;;;1.63;67.32;96902.53;5073791;28;20383;-62
2022/03/03 01:00:30;;;;;;;21.70;14.47;;;;;;;1.52;67.42;96905.47;5072625;28;20408;-62
2022/03/03 01:02:55;;;;;;;18.15;14.27;;;;;;;1.53;67.33;96903.69;5074350;28;20384;-62
2022/03/03 01:05:21;;;;;;;21.48;14.50;;;;;;;1.57;67.75;96910.13;5074529;28;20706;-62
2022/03/03 01:07:46;;;;;;;23.77;14.27;;;;;;;1.58;67.22;96904.00;5074252;28;20375;-61
2022/03/03 01:10:13;;;;;;;19.73;14.90;;;;;;;1.40;67.75;96906.78;5073874;28;20380;-62
2022/03/03 01:12:38;;;;;;;19.08;14.30;;;;;;;1.45;67.81;96906.31;5073997;28;20394;-62
2022/03/03 01:15:06;;;;;;;21.17;14.30;;;;;;;1.40;66.86;96898.25;5074219;28;20478;-61
2022/03/03 01:17:31;;;;;;;21.33;14.80;;;;;;;1.63;66.53;96901.72;5074084;28;20490;-62
2022/03/03 01:19:57;;;;;;;21.43;14.27;;;;;;;1.54;66.65;96900.16;5073892;28;20408;-62
2022/03/03 01:22:22;;;;;;;19.00;14.93;;;;;;;1.75;66.06;96905.53;5072064;28;20391;-62
2022/03/03 01:24:48;;;;;;;20.50;14.40;;;;;;;1.86;65.96;96902.59;5073662;28;20686;-62
2022/03/03 01:27:13;;;;;;;22.03;15.00;;;;;;;1.63;66.78;96915.44;5073632;28;20914;-62
2022/03/03 01:29:39;;;;;;;19.42;14.68;;;;;;;1.75;66.67;96907.31;5073521;28;20476;-62
2022/03/03 01:32:06;;;;;;;21.70;14.50;;;;;;;1.43;67.73;96898.75;5073653;28;20904;-62
2022/03/03 01:34:32;;;;;;;19.55;13.90;;;;;;;1.41;68.06;96892.91;5073542;28;20728;-62
2022/03/03 01:36:57;;;;;;;20.65;14.60;;;;;;;1.33;68.08;96890.38;5073156;28;20387;-62
2022/03/03 01:39:23;;;;;;;25.45;14.52;;;;;;;1.06;69.01;96883.03;5073090;28;20391;-62
2022/03/03 01:41:48;;;;;;;19.63;14.57;;;;;;;0.91;69.63;96880.31;5073065;28;20423;-62
2022/03/03 01:44:14;;;;;;;19.47;14.57;;;;;;;1.02;70.17;96869.63;5073517;28;20388;-62
2022/03/03 01:46:50;;;;;;;18.85;15.02;;;;;;;0.80;69.77;96870.31;5073453;28;20388;-62
2022/03/03 01:49:16;;;;;;;21.50;14.70;;;;;;;1.04;69.35;96864.31;5071742;28;20396;-62
2022/03/03 01:51:42;;;;;;;20.48;14.65;;;;;;;0.88;69.82;96861.78;5072882;28;20730;-62
2022/03/03 01:54:07;;;;;;;21.38;15.05;;;;;;;0.68;70.83;96863.88;5073539;28;20396;-62
2022/03/03 01:56:33;;;;;;;20.20;14.50;;;;;;;0.65;71.34;96864.22;5072780;28;20388;-61
2022/03/03 01:58:59;;;;;;;20.42;15.13;;;;;;;1.07;70.10;96864.78;5072727;28;20379;-62
2022/03/03 02:01:24;;;;;;;21.10;15.10;;;;;;;1.24;69.69;96870.72;5064758;28;20878;-61
2022/03/03 02:03:50;;;;;;;21.10;15.33;;;;;;;0.95;70.00;96865.31;5073215;28;20388;-61
2022/03/03 02:06:15;;;;;;;22.57;15.00;;;;;;;0.96;69.90;96865.13;5073008;28;20379;-63
2022/03/03 02:08:41;;;;;;;21.27;14.20;;;;;;;0.72;71.20;96860.84;5072972;28;20391;-63
2022/03/03 02:11:07;;;;;;;21.70;15.70;;;;;;;1.16;69.63;96863.00;5072445;28;20384;-61
2022/03/03 02:13:32;;;;;;;21.63;15.70;;;;;;;0.86;70.80;96868.88;5072871;28;20860;-61
2022/03/03 02:15:57;;;;;;;21.93;16.13;;;;;;;0.91;70.57;96864.00;5072931;28;20467;-63
2022/03/03 02:18:23;;;;;;;21.03;15.60;;;;;;;0.53;72.30;96866.31;5072747;28;20387;-63
2022/03/03 02:20:49;;;;;;;23.20;16.10;;;;;;;0.55;72.65;96855.84;5072660;28;20776;-64
2022/03/03 02:23:15;;;;;;;20.85;15.27;;;;;;;0.21;74.11;96861.97;5072030;28;20396;-64
2022/03/03 02:25:40;;;;;;;21.50;15.77;;;;;;;0.13;74.02;96861.94;5073008;28;20537;-63
2022/03/03 02:28:06;;;;;;;21.63;15.25;;;;;;;0.16;74.15;96863.41;5071068;28;20388;-63
2022/03/03 02:30:32;;;;;;;20.85;15.68;;;;;;;0.17;73.92;96862.47;5072506;28;20852;-61
2022/03/03 02:32:57;;;;;;;20.98;15.60;;;;;;;0.67;72.60;96860.50;5072380;28;20480;-61
2022/03/03 02:35:23;;;;;;;22.97;16.37;;;;;;;1.19;70.51;96865.25;5072666;28;20387;-61
2022/03/03 02:37:48;;;;;;;22.03;15.53;;;;;;;0.79;70.97;96860.97;5072453;28;20932;-63
2022/03/03 02:40:20;;;;;;;21.53;15.10;;;;;;;0.36;72.85;96862.13;5071816;28;20865;-61
2022/03/03 02:42:54;;;;;;;20.65;14.90;;;;;;;0.31;73.19;96867.78;5072413;28;20380;-61
2022/03/03 02:45:21;;;;;;;22.42;15.32;;;;;;;0.12;74.21;96859.53;5072796;28;20427;-61
2022/03/03 02:47:47;;;;;;;21.75;14.90;;;;;;;0.07;74.24;96864.34;5072324;28;20418;-61
2022/03/03 02:50:15;;;;;;;21.00;14.85;;;;;;;0.16;74.08;96871.97;5071912;28;20753;-62
2022/03/03 02:52:41;;;;;;;20.33;15.43;;;;;;;0.27;73.83;96866.50;5071367;28;20407;-61
2022/03/03 02:55:08;;;;;;;22.10;15.50;;;;;;;0.71;72.63;96866.97;5071700;28;20388;-61
2022/03/03 03:00:18;;;;;;;22.95;15.93;;;;;;;0.68;72.25;96856.16;5071309;28;20913;-61
2022/03/03 03:02:43;;;;;;;20.15;14.60;;;;;;;0.48;72.84;96855.69;5071583;28;20482;-61
2022/03/03 03:05:10;;;;;;;21.87;15.30;;;;;;;0.28;73.17;96850.03;5071868;28;20399;-61
2022/03/03 03:07:35;;;;;;;21.40;14.75;;;;;;;0.28;73.66;96859.56;5071323;28;20391;-62
2022/03/03 03:10:01;;;;;;;21.70;15.52;;;;;;;0.11;74.05;96858.75;5070606;28;20396;-63
2022/03/03 03:12:26;;;;;;;21.57;15.40;;;;;;;0.19;74.13;96858.75;5071256;28;20475;-62
2022/03/03 03:14:52;;;;;;;20.60;15.20;;;;;;;0.12;74.18;96850.03;5071763;28;20388;-61
2022/03/03 03:17:17;;;;;;;19.90;15.17;;;;;;;0.23;74.14;96843.75;5071844;28;20399;-62
2022/03/03 03:19:42;;;;;;;19.97;15.60;;;;;;;0.12;74.00;96837.16;5071500;28;20407;-62
2022/03/03 03:22:08;;;;;;;21.23;15.17;;;;;;;0.23;73.54;96843.75;5071217;28;20408;-62
2022/03/03 03:24:33;;;;;;;23.03;15.60;;;;;;;0.31;73.50;96847.16;5071750;28;20466;-62
2022/03/03 03:26:58;;;;;;;22.23;15.63;;;;;;;0.27;72.71;96839.91;5071936;28;20815;-62
2022/03/03 03:29:24;;;;;;;21.77;16.20;;;;;;;0.70;70.59;96836.16;5072043;28;20411;-61
2022/03/03 03:31:49;;;;;;;20.73;15.97;;;;;;;0.71;70.23;96830.03;5071684;28;20419;-61
2022/03/03 03:34:15;;;;;;;25.33;16.30;;;;;;;0.67;70.41;96826.19;5071470;28;20375;-62
2022/03/03 03:36:40;;;;;;;20.13;14.93;;;;;;;0.50;70.95;96825.41;5071427;28;20380;-62
2022/03/03 03:39:06;;;;;;;23.27;15.87;;;;;;;0.78;70.13;96826.63;5071201;28;20489;-62
2022/03/03 03:41:31;;;;;;;23.50;17.13;;;;;;;0.94;69.31;96827.59;5071339;28;20825;-61
2022/03/03 03:43:57;;;;;;;24.35;16.45;;;;;;;0.74;69.78;96822.78;5071795;28;20391;-62
2022/03/03 03:46:22;;;;;;;23.00;16.73;;;;;;;0.34;71.28;96822.81;5070863;28;20491;-62
2022/03/03 03:48:47;;;;;;;23.00;15.90;;;;;;;0.35;71.42;96822.66;5071724;28;20408;-62
2022/03/03 03:51:13;;;;;;;25.05;17.00;;;;;;;0.32;71.18;96817.03;5071461;28;20457;-62
2022/03/03 03:53:39;;;;;;;23.35;16.00;;;;;;;0.41;71.28;96814.28;5071454;28;20395;-62
2022/03/03 03:56:05;;;;;;;21.23;16.10;;;;;;;0.47;70.39;96817.16;5070117;28;20452;-61
2022/03/03 03:58:31;;;;;;;23.90;16.63;;;;;;;0.54;70.31;96813.78;5071345;28;20402;-61
2022/03/03 04:00:56;;;;;;;21.95;16.60;;;;;;;0.52;70.58;96812.34;5071153;28;20403;-61
2022/03/03 04:03:21;;;;;;;21.90;16.00;;;;;;;0.52;70.61;96815.72;5071001;28;20455;-62
2022/03/03 04:05:47;;;;;;;21.83;16.37;;;;;;;0.54;69.83;96813.78;5071124;28;20419;-62
2022/03/03 04:08:12;;;;;;;23.77;17.47;;;;;;;0.40;70.84;96810.09;5070856;28;20485;-62
2022/03/03 04:10:37;;;;;;;21.43;16.30;;;;;;;0.37;70.62;96820.75;5069582;28;20467;-62
2022/03/03 04:13:03;;;;;;;25.37;17.20;;;;;;;0.24;71.23;96817.03;5071980;28;20388;-61
2022/03/03 04:15:28;;;;;;;22.60;16.67;;;;;;;0.16;72.11;96815.28;5071118;28;20395;-61
2022/03/03 04:17:53;;;;;;;22.70;17.23;;;;;;;0.04;72.47;96810.59;5071265;28;20387;-62
2022/03/03 04:20:19;;;;;;;24.83;16.57;;;;;;;-0.09;73.23;96809.28;5070544;28;21238;-62
2022/03/03 04:22:44;;;;;;;24.08;16.83;;;;;;;-0.15;73.56;96809.09;5073337;28;20474;-63
2022/03/03 04:25:10;;;;;;;24.02;16.90;;;;;;;-0.21;73.34;96795.09;5073728;28;20386;-62
2022/03/03 04:27:40;;;;;;;23.83;17.07;;;;;;;-0.12;73.30;96803.66;5073472;28;20399;-61
2022/03/03 04:30:07;;;;;;;22.33;16.38;;;;;;;-0.29;73.74;96800.25;5074488;28;20382;-62
2022/03/03 04:32:32;;;;;;;22.85;16.73;;;;;;;-0.38;74.55;96803.75;5074891;28;20469;-61
2022/03/03 04:34:58;;;;;;;22.87;16.50;;;;;;;-0.30;74.53;96790.91;5074907;28;20429;-64
2022/03/03 04:37:23;;;;;;;22.03;16.13;;;;;;;-0.43;74.43;96798.28;5074453;28;20396;-61
2022/03/03 04:39:48;;;;;;;24.20;16.40;;;;;;;-0.42;75.18;96785.25;5074543;28;20763;-62
2022/03/03 04:42:14;;;;;;;22.60;16.57;;;;;;;-0.42;74.78;96792.16;5074319;28;20388;-62
2022/03/03 04:44:39;;;;;;;24.17;16.60;;;;;;;-0.25;74.20;96782.69;5074327;28;20421;-62
2022/03/03 04:47:06;;;;;;;22.03;16.23;;;;;;;-0.54;75.27;96786.50;5074431;28;20417;-61
2022/03/03 04:49:31;;;;;;;24.70;16.05;;;;;;;-0.25;74.08;96786.09;5074109;28;20856;-62
2022/03/03 04:51:57;;;;;;;23.40;16.63;;;;;;;-0.34;74.54;96784.47;5074580;28;20382;-62
2022/03/03 04:54:22;;;;;;;24.03;16.20;;;;;;;-0.65;76.15;96794.53;5074325;28;20388;-61
2022/03/03 04:56:47;;;;;;;22.20;16.80;;;;;;;-0.82;76.57;96790.28;5073824;28;20491;-62
2022/03/03 04:59:13;;;;;;;23.77;16.83;;;;;;;-0.65;76.65;96789.38;5074645;28;20852;-62
2022/03/03 05:01:39;;;;;;;24.48;16.70;;;;;;;-0.77;76.70;96785.47;5073923;28;20491;-61
2022/03/03 05:04:04;;;;;;;22.40;16.30;;;;;;;-0.74;76.68;96785.19;5073852;28;20952;-62
2022/03/03 05:06:30;;;;;;;24.53;16.47;;;;;;;-0.72;76.18;96785.81;5072589;28;20384;-62
2022/03/03 05:08:55;;;;;;;25.27;16.17;;;;;;;-0.97;77.43;96784.13;5073279;28;20439;-62
2022/03/03 05:11:21;;;;;;;23.07;17.23;;;;;;;-0.88;77.55;96778.84;5073933;28;20476;-61
2022/03/03 05:13:48;;;;;;;26.15;17.88;;;;;;;-0.75;76.78;96772.47;5074347;28;20398;-61
2022/03/03 05:16:13;;;;;;;28.73;17.20;;;;;;;-0.70;76.96;96772.78;5071980;28;20388;-62
2022/03/03 05:18:38;;;;;;;22.00;15.68;;;;;;;-0.73;76.89;96765.41;5073151;28;20476;-61
2022/03/03 05:21:04;;;;;;;21.63;15.73;;;;;;;-0.70;76.88;96755.59;5073438;28;20411;-62
2022/03/03 05:23:30;;;;;;;23.10;16.70;;;;;;;-0.72;76.76;96752.34;5073927;28;20434;-62
2022/03/03 05:25:55;;;;;;;24.10;16.70;;;;;;;-0.71;76.81;96751.41;5073854;28;20384;-61
2022/03/03 05:28:20;;;;;;;24.15;17.70;;;;;;;-0.59;75.98;96745.00;5073523;28;20383;-61
2022/03/03 05:30:46;;;;;;;24.27;16.50;;;;;;;-0.33;75.22;96747.44;5072451;28;20740;-61
2022/03/03 05:33:11;;;;;;;23.70;16.80;;;;;;;-0.58;75.94;96741.47;5072876;28;20437;-62
2022/03/03 05:35:39;;;;;;;24.35;17.50;;;;;;;-0.41;75.50;96744.88;5073541;28;20916;-62
2022/03/03 05:38:04;;;;;;;24.15;16.48;;;;;;;-0.31;75.43;96737.00;5071962;28;20399;-62
2022/03/03 05:40:31;;;;;;;23.92;16.80;;;;;;;-0.30;75.47;96742.00;5073707;28;20852;-61
2022/03/03 05:42:56;;;;;;;24.38;16.48;;;;;;;-0.25;75.26;96744.88;5073567;28;20392;-61
2022/03/03 05:45:22;;;;;;;24.35;16.77;;;;;;;-0.21;74.46;96747.94;5073339;28;20441;-61
2022/03/03 05:47:48;;;;;;;23.20;16.25;;;;;;;-0.51;75.68;96757.91;5073713;28;20966;-61
2022/03/03 05:50:15;;;;;;;23.53;16.27;;;;;;;-0.31;74.54;96750.66;5072700;28;20400;-62
2022/03/03 05:52:40;;;;;;;22.17;15.73;;;;;;;-0.37;75.07;96761.59;5073446;28;20851;-62
2022/03/03 05:55:07;;;;;;;23.87;16.40;;;;;;;-0.43;74.90;96760.47;5072941;28;20547;-62
2022/03/03 05:57:42;;;;;;;22.25;16.13;;;;;;;-0.33;74.79;96768.03;5073037;28;20391;-62
2022/03/03 06:00:28;;;;;;;22.48;15.90;;;;;;;-0.35;75.28;96770.00;5055456;28;20427;-62
2022/03/03 06:02:55;;;;;;;22.00;16.15;;;;;;;-0.50;75.85;96772.34;5073030;28;20391;-62
2022/03/03 06:05:24;;;;;;;23.50;16.85;;;;;;;-0.51;75.93;96760.47;5072391;28;20406;-62
2022/03/03 06:07:52;;;;;;;23.02;16.85;;;;;;;-0.57;76.25;96771.41;5072398;28;20486;-62
2022/03/03 06:10:23;;;;;;;23.17;16.03;;;;;;;-0.48;75.55;96765.28;5072746;28;20398;-62
2022/03/03 06:12:52;;;;;;;23.63;16.25;;;;;;;-0.17;74.36;96759.53;5072405;28;20697;-62
2022/03/03 06:15:22;;;;;;;20.90;15.75;;;;;;;-0.11;73.08;96766.59;5072430;28;20395;-62
2022/03/03 06:17:49;;;;;;;21.95;15.82;;;;;;;-0.02;73.26;96758.75;5071263;28;20792;-62
2022/03/03 06:20:15;;;;;;;20.80;14.93;;;;;;;0.17;72.39;96762.75;5071815;28;20430;-62
2022/03/03 06:22:41;;;;;;;21.57;15.60;;;;;;;0.50;71.20;96757.56;5072304;28;20448;-62
2022/03/03 06:25:08;;;;;;;19.70;14.90;;;;;;;0.61;70.37;96767.53;5072440;28;20831;-62
2022/03/03 06:27:33;;;;;;;22.07;15.07;;;;;;;0.77;69.59;96763.13;5072506;28;20484;-62
2022/03/03 06:29:59;;;;;;;21.97;14.90;;;;;;;0.98;68.79;96748.88;5072745;28;20424;-62
2022/03/03 06:32:24;;;;;;;20.07;15.50;;;;;;;1.02;68.15;96750.94;5072643;28;20395;-62
2022/03/03 06:34:50;;;;;;;20.43;14.53;;;;;;;1.32;66.91;96749.34;5071376;28;20452;-62
2022/03/03 06:37:15;;;;;;;21.00;14.67;;;;;;;1.49;66.73;96739.75;5072013;28;20386;-62
2022/03/03 06:39:40;;;;;;;21.40;14.57;;;;;;;1.50;66.97;96744.75;5072886;28;20521;-62
2022/03/03 06:42:07;;;;;;;19.63;14.80;;;;;;;1.81;65.52;96736.13;5072557;28;20422;-62
2022/03/03 06:44:33;;;;;;;19.20;15.05;;;;;;;1.88;65.34;96730.09;5072549;28;20395;-62
2022/03/03 06:46:58;;;;;;;19.35;13.82;;;;;;;1.88;64.98;96730.09;5071548;28;20399;-62
2022/03/03 06:49:24;;;;;;;21.97;15.20;;;;;;;2.14;64.49;96724.53;5070248;28;20411;-62
2022/03/03 06:51:54;;;;;;;22.07;14.67;;;;;;;2.14;64.14;96718.56;5072466;28;20388;-62
2022/03/03 06:54:21;;;;;;;20.30;14.93;;;;;;;2.30;63.26;96713.25;5071972;28;20941;-62
2022/03/03 06:56:55;;;;;;;20.33;14.32;;;;;;;2.58;63.10;96708.28;5071379;28;20442;-62
2022/03/03 06:59:29;;;;;;;20.75;15.30;;;;;;;2.60;63.75;96696.78;5071466;28;20419;-66
2022/03/03 07:01:56;;;;;;;22.48;15.82;;;;;;;2.86;63.33;96686.75;5071394;28;20887;-62
2022/03/03 07:04:23;;;;;;;22.73;15.63;;;;;;;2.80;62.00;96684.88;5071670;28;20380;-62
2022/03/03 07:06:49;;;;;;;21.85;15.90;;;;;;;2.74;62.25;96687.38;5070436;28;20453;-62
2022/03/03 07:09:16;;;;;;;22.65;15.70;;;;;;;2.50;62.84;96684.13;5071405;28;20561;-62
2022/03/03 07:11:45;;;;;;;22.00;15.18;;;;;;;2.41;63.72;96679.19;5070714;28;20860;-61
2022/03/03 07:14:11;;;;;;;21.73;15.15;;;;;;;2.76;62.98;96669.91;5071563;28;20402;-62
2022/03/03 07:16:58;;;;;;;23.55;15.85;;;;;;;2.85;62.71;96681.75;5071502;28;20392;-63
2022/03/03 07:19:26;;;;;;;20.67;15.32;;;;;;;2.79;63.44;96682.47;5071219;28;20967;-63
2022/03/03 07:22:18;;;;;;;21.17;14.82;;;;;;;2.74;62.41;96685.59;5072000;28;20453;-63
2022/03/03 07:24:57;;;;;;;22.38;15.45;;;;;;;2.71;64.63;96706.69;5072032;28;20392;-64
2022/03/03 07:27:24;;;;;;;21.80;15.30;;;;;;;2.16;64.53;96708.88;5071538;28;20410;-64
2022/03/03 07:30:06;;;;;;;19.52;14.75;;;;;;;2.53;63.59;96721.75;5071872;28;20392;-63
2022/03/03 07:32:36;;;;;;;21.60;15.73;;;;;;;2.50;64.23;96722.91;5071747;28;20485;-63
2022/03/03 07:35:14;;;;;;;20.63;15.05;;;;;;;2.26;64.71;96723.16;5071519;28;20388;-64
2022/03/03 07:38:06;;;;;;;20.83;15.35;;;;;;;2.87;64.83;96726.38;5071241;28;20400;-63
2022/03/03 07:40:32;;;;;;;22.45;16.05;;;;;;;3.05;63.97;96720.84;5070503;28;20412;-63
2022/03/03 07:42:59;;;;;;;21.88;15.30;;;;;;;3.30;63.29;96717.75;5071693;28;20383;-66
2022/03/03 07:45:25;;;;;;;19.90;15.35;;;;;;;3.41;62.30;96718.25;5071476;28;20525;-65
2022/03/03 07:47:54;;;;;;;20.92;15.10;;;;;;;3.28;63.34;96724.91;5070994;28;20402;-65
2022/03/03 07:50:19;;;;;;;21.38;15.05;;;;;;;3.19;62.49;96732.94;5071318;28;20404;-63
2022/03/03 07:52:45;;;;;;;20.53;15.17;;;;;;;3.39;61.96;96741.75;5071476;28;20729;-64
2022/03/03 07:55:11;;;;;;;24.27;15.73;;;;;;;3.50;62.04;96727.53;5071287;28;20441;-64
2022/03/03 07:57:56;;;;;;;23.77;15.80;;;;;;;3.59;61.40;96718.63;5073382;28;20392;-64
2022/03/03 08:00:22;;;;;;;22.05;15.07;;;;;;;3.47;62.25;96710.53;5074210;28;20435;-64
2022/03/03 08:02:50;;;;;;;23.77;15.25;;;;;;;3.84;61.97;96709.53;5074945;28;20419;-63
2022/03/03 08:05:16;;;;;;;20.85;15.13;;;;;;;4.15;61.13;96715.16;5075179;28;20478;-63
2022/03/03 08:07:44;;;;;;;20.57;15.63;;;;;;;4.15;61.35;96712.56;5074756;28;20386;-63
2022/03/03 08:10:12;;;;;;;21.67;15.65;;;;;;;4.30;61.33;96711.66;5074174;28;20395;-63
2022/03/03 08:12:39;;;;;;;20.77;15.68;;;;;;;4.88;58.77;96708.63;5074908;28;20467;-63
2022/03/03 08:15:06;;;;;;;21.55;16.17;;;;;;;5.20;57.03;96709.75;5074866;28;20383;-64
2022/03/03 08:17:34;;;;;;;21.60;15.50;;;;;;;5.32;56.18;96710.81;5073306;28;20804;-64
2022/03/03 08:20:02;;;;;;;22.30;16.00;;;;;;;5.41;56.03;96703.63;5072122;28;20442;-62
2022/03/03 08:22:28;;;;;;;22.20;16.30;;;;;;;5.70;56.04;96703.28;5074864;28;20383;-61
2022/03/03 08:24:55;;;;;;;25.53;16.10;;;;;;;6.02;54.93;96709.56;5074172;28;20407;-60
2022/03/03 08:27:22;;;;;;;22.40;15.77;;;;;;;5.64;56.18;96703.28;5074935;28;20383;-62
2022/03/03 08:29:48;;;;;;;23.30;16.27;;;;;;;5.61;57.56;96709.69;5073774;28;20864;-61
2022/03/03 08:32:16;;;;;;;24.27;16.95;;;;;;;5.77;56.69;96700.72;5073178;28;20724;-61
2022/03/03 08:35:00;;;;;;;22.58;16.50;;;;;;;5.51;57.69;96700.66;5074405;28;20441;-62
2022/03/03 08:37:36;;;;;;;22.77;16.73;;;;;;;4.97;59.04;96698.88;5073245;28;20392;-63
2022/03/03 08:40:05;;;;;;;23.25;17.00;;;;;;;5.22;58.45;96714.78;5073066;28;20395;-63
2022/03/03 08:42:36;;;;;;;26.83;17.42;;;;;;;4.88;58.96;96705.22;5071772;28;20391;-63
2022/03/03 08:45:06;;;;;;;26.40;17.60;;;;;;;4.54;58.93;96712.03;5073856;28;20392;-62
2022/03/03 08:47:32;;;;;;;23.05;16.42;;;;;;;4.78;58.84;96715.16;5073637;28;20396;-62
2022/03/03 08:50:01;;;;;;;20.98;16.80;;;;;;;4.72;59.37;96721.13;5074288;28;20395;-62
2022/03/03 08:52:28;;;;;;;23.83;17.58;;;;;;;4.52;59.08;96719.19;5074391;28;20486;-63
2022/03/03 08:54:55;;;;;;;26.30;17.40;;;;;;;4.45;60.22;96714.97;5073590;28;20470;-61
2022/03/03 08:57:20;;;;;;;21.95;17.17;;;;;;;4.29;59.75;96716.03;5073783;28;20863;-62
2022/03/03 08:59:46;;;;;;;24.53;17.10;;;;;;;4.15;60.61;96712.56;5074008;28;20416;-63
2022/03/03 09:02:16;;;;;;;24.20;17.87;;;;;;;4.65;59.85;96718.50;5073967;28;20400;-63
2022/03/03 09:04:44;;;;;;;23.13;17.27;;;;;;;4.44;60.22;96721.16;5069744;28;20537;-63
2022/03/03 09:07:09;;;;;;;23.48;17.35;;;;;;;4.58;59.76;96726.22;5073816;28;20423;-62
2022/03/03 09:09:35;;;;;;;26.23;17.90;;;;;;;4.34;60.05;96728.47;5072760;28;20481;-65
2022/03/03 09:12:01;;;;;;;22.33;17.17;;;;;;;4.11;60.83;96718.31;5072984;28;20395;-63
2022/03/03 09:14:27;;;;;;;23.40;17.70;;;;;;;4.53;59.24;96720.81;5074596;28;20412;-63
2022/03/03 09:16:53;;;;;;;27.83;17.67;;;;;;;4.48;59.91;96723.19;5074434;28;20416;-63
2022/03/03 09:19:18;;;;;;;25.90;18.20;;;;;;;4.12;60.89;96719.94;5082333;28;20397;-63
2022/03/03 09:21:44;;;;;;;24.90;16.83;;;;;;;4.34;60.46;96720.69;5094301;28;20412;-62
2022/03/03 09:24:09;;;;;;;24.27;16.73;;;;;;;4.30;58.35;96716.84;5094412;28;20444;-63
2022/03/03 09:26:35;;;;;;;26.10;17.07;;;;;;;4.11;59.40;96723.50;5093528;28;20413;-63
2022/03/03 09:29:01;;;;;;;24.53;16.73;;;;;;;4.50;58.33;96718.59;5093402;28;20500;-63
2022/03/03 09:31:26;;;;;;;22.33;17.07;;;;;;;4.24;58.49;96717.59;5075859;28;20889;-62
2022/03/03 09:33:51;;;;;;;23.77;16.40;;;;;;;4.73;57.88;96712.34;5093622;28;20469;-62
2022/03/03 09:36:20;;;;;;;23.70;16.67;;;;;;;4.42;58.42;96715.34;5093802;28;20400;-62
2022/03/03 09:38:46;;;;;;;22.27;17.17;;;;;;;4.60;58.26;96724.25;5093548;28;20564;-63
2022/03/03 09:41:12;;;;;;;25.97;15.70;;;;;;;4.43;57.48;96724.72;5094336;28;20279;-62
2022/03/03 09:43:40;;;;;;;23.20;15.57;;;;;;;4.35;57.50;96730.84;5076645;28;20682;-62
2022/03/03 09:46:05;;;;;;;28.17;16.17;;;;;;;4.23;58.28;96729.78;5095046;28;20215;-62
2022/03/03 09:48:32;;;;;;;22.13;14.97;;;;;;;4.00;58.16;96726.59;5094830;28;20267;-62
2022/03/03 09:50:57;;;;;;;28.37;16.03;;;;;;;4.10;58.75;96724.50;5076550;28;20528;-62
2022/03/03 09:53:22;;;;;;;25.00;15.40;;;;;;;4.20;57.97;96724.97;5094430;28;20268;-63
2022/03/03 09:55:49;;;;;;;23.47;14.50;;;;;;;4.02;58.72;96730.59;5093597;28;20173;-62
2022/03/03 09:58:15;;;;;;;23.27;14.90;;;;;;;4.34;57.81;96718.09;5076500;28;20641;-62
2022/03/03 10:00:42;;;;;;;26.93;15.13;;;;;;;4.41;57.15;96719.72;5094339;28;20249;-63
2022/03/03 10:03:10;;;;;;;22.40;15.03;;;;;;;4.31;58.58;96711.47;5086250;28;20255;-62
2022/03/03 10:05:47;;;;;;;24.50;14.83;;;;;;;4.30;57.20;96716.84;5094269;28;20173;-61
2022/03/03 10:08:15;;;;;;;20.57;13.50;;;;;;;4.52;56.22;96714.00;5094465;28;20520;-62
2022/03/03 10:10:43;;;;;;;24.77;15.10;;;;;;;4.47;55.82;96716.38;5093957;28;20187;-62
2022/03/03 10:13:09;;;;;;;24.17;15.20;;;;;;;4.78;55.85;96712.56;5088088;28;20521;-62
2022/03/03 10:15:35;;;;;;;24.03;14.10;;;;;;;4.65;55.39;96713.28;5093354;28;20555;-62
2022/03/03 10:18:04;;;;;;;25.03;15.07;;;;;;;4.53;55.97;96713.03;5094261;28;20501;-62
2022/03/03 10:20:37;;;;;;;23.80;14.03;;;;;;;4.77;55.56;96713.56;5075037;28;20346;-62
2022/03/03 10:23:06;;;;;;;25.90;14.27;;;;;;;4.95;53.88;96716.47;5072588;28;20169;-62
2022/03/03 10:25:39;;;;;;;22.07;15.03;;;;;;;5.28;56.40;96714.78;5073669;28;20173;-62
2022/03/03 10:28:13;;;;;;;23.33;14.70;;;;;;;5.14;54.16;96718.31;5074186;28;20177;-62
2022/03/03 10:30:58;;;;;;;20.03;13.60;;;;;;;5.34;55.31;96718.41;5073684;28;20637;-62
2022/03/03 10:33:26;;;;;;;23.23;14.80;;;;;;;5.43;55.66;96714.63;5073449;28;20239;-62
2022/03/03 10:35:59;;;;;;;25.57;16.30;;;;;;;5.40;56.43;96709.84;5073411;28;20177;-62
2022/03/03 10:38:25;;;;;;;23.73;13.93;;;;;;;5.54;55.00;96713.25;5072360;28;20222;-62
2022/03/03 10:40:50;;;;;;;24.53;14.97;;;;;;;5.72;53.20;96711.72;5072162;28;20205;-63
2022/03/03 10:43:16;;;;;;;27.83;14.93;;;;;;;5.83;51.93;96711.13;5073311;28;20187;-62
2022/03/03 10:45:58;;;;;;;23.43;14.87;;;;;;;5.75;52.36;96705.28;5073497;28;20181;-62
2022/03/03 10:48:25;;;;;;;23.67;15.10;;;;;;;5.86;53.17;96699.50;5073520;28;20522;-62
2022/03/03 10:50:54;;;;;;;23.77;15.00;;;;;;;6.08;52.77;96706.16;5073484;28;20193;-62
2022/03/03 10:53:22;;;;;;;21.33;14.37;;;;;;;6.05;51.96;96705.75;5073346;28;20322;-62
2022/03/03 10:56:00;;;;;;;22.27;14.63;;;;;;;6.00;52.33;96695.16;5072635;28;20182;-62
2022/03/03 10:58:55;;;;;;;21.90;14.73;;;;;;;5.97;51.93;96696.34;5057285;28;20649;-62
2022/03/03 11:01:27;;;;;;;26.00;14.80;;;;;;;5.95;52.24;96690.56;5072085;28;20388;-61
2022/03/03 11:03:53;;;;;;;25.57;14.43;;;;;;;5.95;52.13;96687.16;5072909;28;20209;-62
2022/03/03 11:06:28;;;;;;;23.33;14.00;;;;;;;6.14;49.86;96697.56;5073035;28;20252;-61
2022/03/03 11:08:56;;;;;;;37.27;14.70;;;;;;;6.26;50.20;96688.13;5072662;28;20252;-62
2022/03/03 11:11:23;;;;;;;24.20;14.13;;;;;;;6.32;50.48;96686.53;5067076;28;20204;-61
2022/03/03 11:13:50;;;;;;;22.17;14.73;;;;;;;6.37;50.62;96680.72;5072805;28;20185;-61
2022/03/03 11:16:23;;;;;;;24.30;14.73;;;;;;;6.39;51.02;96676.94;5072760;28;20260;-62
2022/03/03 11:18:49;;;;;;;23.10;15.13;;;;;;;6.39;51.27;96668.31;5071635;28;20224;-62
2022/03/03 11:21:15;;;;;;;21.53;13.17;;;;;;;6.44;50.36;96663.28;5072288;28;20309;-61
2022/03/03 11:23:47;;;;;;;22.87;14.27;;;;;;;6.86;49.55;96654.94;5072395;28;20205;-61
2022/03/03 11:26:31;;;;;;;23.47;13.93;;;;;;;6.76;49.22;96651.19;5072427;28;20170;-62
2022/03/03 11:29:13;;;;;;;25.67;13.83;;;;;;;6.97;49.64;96641.28;5072870;28;20199;-62